sensor_id;sensor_type;location;lat;lon;timestamp;pressure;altitude;pressure_sealevel;temperature;humidity
788;BME280;16074;42.708;23.312;2023-01-31T00:01:33;138476.09;;;0.66;91.94
788;BME280;16074;42.708;23.312;2023-01-31T00:04:21;138503.53;;;0.77;91.39
788;BME280;16074;42.708;23.312;2023-01-31T00:07:07;138515.47;;;0.82;91.44
788;BME280;16074;42.708;23.312;2023-01-31T00:09:54;138529.75;;;0.88;91.33
788;BME280;16074;42.708;23.312;2023-01-31T00:12:42;138533.34;;;0.90;90.67
788;BME280;16074;42.708;23.312;2023-01-31T00:15:29;138536.91;;;0.91;91.47
788;BME280;16074;42.708;23.312;2023-01-31T00:18:16;138480.84;;;0.68;91.82
788;BME280;16074;42.708;23.312;2023-01-31T00:21:05;138522.59;;;0.85;92.10
788;BME280;16074;42.708;23.312;2023-01-31T00:23:53;138527.34;;;0.87;92.20
788;BME280;16074;42.708;23.312;2023-01-31T00:26:41;138510.69;;;0.80;91.89
788;BME280;16074;42.708;23.312;2023-01-31T00:29:29;138521.41;;;0.85;91.96
788;BME280;16074;42.708;23.312;2023-01-31T00:53:29;138488.00;;;0.71;93.97
788;BME280;16074;42.708;23.312;2023-01-31T00:56:01;138484.44;;;0.69;93.21
788;BME280;16074;42.708;23.312;2023-01-31T00:58:30;138485.63;;;0.70;93.80
788;BME280;16074;42.708;23.312;2023-01-31T01:01:05;138471.31;;;0.64;93.45
788;BME280;16074;42.708;23.312;2023-01-31T01:03:33;138460.59;;;0.59;93.78
788;BME280;16074;42.708;23.312;2023-01-31T01:06:03;138460.59;;;0.59;93.72
788;BME280;16074;42.708;23.312;2023-01-31T01:08:33;138433.19;;;0.48;93.73
788;BME280;16074;42.708;23.312;2023-01-31T01:11:04;138410.53;;;0.38;94.31
788;BME280;16074;42.708;23.312;2023-01-31T01:13:33;138433.19;;;0.48;94.34
788;BME280;16074;42.708;23.312;2023-01-31T01:16:04;138418.88;;;0.42;94.15
788;BME280;16074;42.708;23.312;2023-01-31T01:18:33;138428.44;;;0.46;94.59
788;BME280;16074;42.708;23.312;2023-01-31T01:21:05;138381.94;;;0.26;93.89
788;BME280;16074;42.708;23.312;2023-01-31T01:23:36;138381.94;;;0.26;94.26
788;BME280;16074;42.708;23.312;2023-01-31T01:26:05;138409.34;;;0.38;94.14
788;BME280;16074;42.708;23.312;2023-01-31T01:28:39;138383.13;;;0.27;93.72
788;BME280;16074;42.708;23.312;2023-01-31T01:31:09;138410.53;;;0.38;92.97
788;BME280;16074;42.708;23.312;2023-01-31T01:33:39;138427.22;;;0.45;92.83
788;BME280;16074;42.708;23.312;2023-01-31T01:36:09;138414.13;;;0.40;92.15
788;BME280;16074;42.708;23.312;2023-01-31T01:38:43;138436.75;;;0.49;91.60
788;BME280;16074;42.708;23.312;2023-01-31T01:41:12;138453.44;;;0.56;91.18
788;BME280;16074;42.708;23.312;2023-01-31T01:43:43;138451.06;;;0.55;90.38
788;BME280;16074;42.708;23.312;2023-01-31T01:46:15;138453.44;;;0.56;89.56
788;BME280;16074;42.708;23.312;2023-01-31T01:48:46;138440.34;;;0.51;88.12
788;BME280;16074;42.708;23.312;2023-01-31T01:51:16;138460.59;;;0.59;87.58
788;BME280;16074;42.708;23.312;2023-01-31T01:53:50;138460.59;;;0.59;87.63
788;BME280;16074;42.708;23.312;2023-01-31T01:56:22;138448.69;;;0.54;86.13
788;BME280;16074;42.708;23.312;2023-01-31T01:58:57;138465.38;;;0.61;85.45
788;BME280;16074;42.708;23.312;2023-01-31T02:01:34;138463.00;;;0.60;84.76
788;BME280;16074;42.708;23.312;2023-01-31T02:04:10;138470.16;;;0.63;84.25
788;BME280;16074;42.708;23.312;2023-01-31T02:06:42;138471.31;;;0.64;83.26
788;BME280;16074;42.708;23.312;2023-01-31T02:09:19;138490.41;;;0.72;81.87
788;BME280;16074;42.708;23.312;2023-01-31T02:11:49;138520.25;;;0.84;80.87
788;BME280;16074;42.708;23.312;2023-01-31T02:14:20;138515.47;;;0.82;80.10
788;BME280;16074;42.708;23.312;2023-01-31T02:16:48;138516.63;;;0.83;79.89
788;BME280;16074;42.708;23.312;2023-01-31T02:19:21;138521.41;;;0.85;79.88
788;BME280;16074;42.708;23.312;2023-01-31T02:22:09;138502.31;;;0.77;79.91
788;BME280;16074;42.708;23.312;2023-01-31T02:34:03;138510.69;;;0.80;79.63
788;BME280;16074;42.708;23.312;2023-01-31T02:36:43;138514.25;;;0.82;79.22
788;BME280;16074;42.708;23.312;2023-01-31T02:39:24;138527.34;;;0.87;79.07
788;BME280;16074;42.708;23.312;2023-01-31T02:42:04;138529.75;;;0.88;79.45
788;BME280;16074;42.708;23.312;2023-01-31T02:44:39;138536.91;;;0.91;79.73
788;BME280;16074;42.708;23.312;2023-01-31T02:47:36;138539.28;;;0.92;79.49
788;BME280;16074;42.708;23.312;2023-01-31T02:50:13;138546.44;;;0.95;79.44
788;BME280;16074;42.708;23.312;2023-01-31T02:52:47;138550.03;;;0.97;79.45
788;BME280;16074;42.708;23.312;2023-01-31T02:55:20;138577.47;;;1.08;79.55
788;BME280;16074;42.708;23.312;2023-01-31T02:58:11;138544.06;;;0.94;79.67
788;BME280;16074;42.708;23.312;2023-01-31T03:00:42;138560.75;;;1.01;80.62
788;BME280;16074;42.708;23.312;2023-01-31T03:03:17;138569.13;;;1.05;80.62
788;BME280;16074;42.708;23.312;2023-01-31T03:09:05;138565.53;;;1.03;81.61
788;BME280;16074;42.708;23.312;2023-01-31T03:11:42;138538.13;;;0.92;81.90
788;BME280;16074;42.708;23.312;2023-01-31T03:14:21;138490.41;;;0.72;82.41
788;BME280;16074;42.708;23.312;2023-01-31T03:16:57;138488.00;;;0.71;82.81
788;BME280;16074;42.708;23.312;2023-01-31T03:19:52;138486.84;;;0.70;83.58
788;BME280;16074;42.708;23.312;2023-01-31T03:22:30;138464.16;;;0.61;84.64
788;BME280;16074;42.708;23.312;2023-01-31T03:25:03;138459.38;;;0.59;85.05
788;BME280;16074;42.708;23.312;2023-01-31T03:27:33;138461.78;;;0.60;85.70
788;BME280;16074;42.708;23.312;2023-01-31T03:30:11;138447.50;;;0.54;86.49
788;BME280;16074;42.708;23.312;2023-01-31T03:32:44;138464.16;;;0.61;86.82
788;BME280;16074;42.708;23.312;2023-01-31T03:35:18;138452.28;;;0.56;86.94
788;BME280;16074;42.708;23.312;2023-01-31T03:37:55;138455.84;;;0.57;86.86
788;BME280;16074;42.708;23.312;2023-01-31T03:40:30;138427.22;;;0.45;87.57
788;BME280;16074;42.708;23.312;2023-01-31T03:43:06;138416.50;;;0.41;88.33
788;BME280;16074;42.708;23.312;2023-01-31T03:45:43;138415.28;;;0.40;89.29
788;BME280;16074;42.708;23.312;2023-01-31T03:48:14;138418.88;;;0.42;90.72
788;BME280;16074;42.708;23.312;2023-01-31T03:50:48;138412.91;;;0.39;92.26
788;BME280;16074;42.708;23.312;2023-01-31T03:53:23;138416.50;;;0.41;93.84
788;BME280;16074;42.708;23.312;2023-01-31T03:55:58;138420.06;;;0.42;93.98
788;BME280;16074;42.708;23.312;2023-01-31T03:58:37;138428.44;;;0.46;94.55
788;BME280;16074;42.708;23.312;2023-01-31T04:01:09;138440.34;;;0.51;95.40
788;BME280;16074;42.708;23.312;2023-01-31T04:03:41;138426.03;;;0.45;95.42
788;BME280;16074;42.708;23.312;2023-01-31T04:06:10;138414.13;;;0.40;95.62
788;BME280;16074;42.708;23.312;2023-01-31T04:08:41;138418.88;;;0.42;95.47
788;BME280;16074;42.708;23.312;2023-01-31T04:11:12;138420.06;;;0.42;96.06
788;BME280;16074;42.708;23.312;2023-01-31T04:13:41;138427.22;;;0.45;96.42
788;BME280;16074;42.708;23.312;2023-01-31T04:16:09;138427.22;;;0.45;96.60
788;BME280;16074;42.708;23.312;2023-01-31T04:18:38;138430.81;;;0.47;96.84
788;BME280;16074;42.708;23.312;2023-01-31T04:21:06;138427.22;;;0.45;97.34
788;BME280;16074;42.708;23.312;2023-01-31T04:23:36;138428.44;;;0.46;97.85
788;BME280;16074;42.708;23.312;2023-01-31T04:26:04;138437.97;;;0.50;98.57
788;BME280;16074;42.708;23.312;2023-01-31T04:28:34;138431.97;;;0.47;99.14
788;BME280;16074;42.708;23.312;2023-01-31T04:31:02;138423.66;;;0.44;99.25
788;BME280;16074;42.708;23.312;2023-01-31T04:33:31;138427.22;;;0.45;100.00
788;BME280;16074;42.708;23.312;2023-01-31T04:35:59;138412.91;;;0.39;100.00
788;BME280;16074;42.708;23.312;2023-01-31T04:38:27;138418.88;;;0.42;100.00
788;BME280;16074;42.708;23.312;2023-01-31T04:40:56;138411.72;;;0.39;100.00
788;BME280;16074;42.708;23.312;2023-01-31T04:43:24;138399.81;;;0.34;100.00
788;BME280;16074;42.708;23.312;2023-01-31T04:45:54;138391.44;;;0.30;100.00
788;BME280;16074;42.708;23.312;2023-01-31T04:48:22;138398.59;;;0.33;100.00
788;BME280;16074;42.708;23.312;2023-01-31T04:50:50;138396.22;;;0.32;100.00
788;BME280;16074;42.708;23.312;2023-01-31T04:53:18;138390.28;;;0.30;100.00
788;BME280;16074;42.708;23.312;2023-01-31T04:55:48;138392.66;;;0.31;100.00
788;BME280;16074;42.708;23.312;2023-01-31T04:58:16;138397.41;;;0.33;100.00
788;BME280;16074;42.708;23.312;2023-01-31T05:00:45;138398.59;;;0.33;100.00
788;BME280;16074;42.708;23.312;2023-01-31T05:03:14;138391.44;;;0.30;100.00
788;BME280;16074;42.708;23.312;2023-01-31T05:05:43;138390.28;;;0.30;100.00
788;BME280;16074;42.708;23.312;2023-01-31T05:08:11;138400.97;;;0.34;100.00
788;BME280;16074;42.708;23.312;2023-01-31T05:10:39;138408.13;;;0.37;100.00
788;BME280;16074;42.708;23.312;2023-01-31T05:13:08;138417.66;;;0.41;100.00
788;BME280;16074;42.708;23.312;2023-01-31T05:15:38;138412.91;;;0.39;100.00
788;BME280;16074;42.708;23.312;2023-01-31T05:18:07;138420.06;;;0.42;100.00
788;BME280;16074;42.708;23.312;2023-01-31T05:20:37;138420.06;;;0.42;100.00
788;BME280;16074;42.708;23.312;2023-01-31T05:23:07;138427.22;;;0.45;100.00
788;BME280;16074;42.708;23.312;2023-01-31T05:25:36;138436.75;;;0.49;100.00
788;BME280;16074;42.708;23.312;2023-01-31T05:28:04;138442.72;;;0.52;100.00
788;BME280;16074;42.708;23.312;2023-01-31T05:30:33;138446.28;;;0.53;100.00
788;BME280;16074;42.708;23.312;2023-01-31T05:33:02;138442.72;;;0.52;100.00
788;BME280;16074;42.708;23.312;2023-01-31T05:35:30;138449.88;;;0.55;100.00
788;BME280;16074;42.708;23.312;2023-01-31T05:38:00;138461.78;;;0.60;100.00
788;BME280;16074;42.708;23.312;2023-01-31T05:40:29;138455.84;;;0.57;100.00
788;BME280;16074;42.708;23.312;2023-01-31T05:42:58;138465.38;;;0.61;100.00
788;BME280;16074;42.708;23.312;2023-01-31T05:45:28;138470.16;;;0.63;100.00
788;BME280;16074;42.708;23.312;2023-01-31T05:47:57;138482.06;;;0.68;100.00
788;BME280;16074;42.708;23.312;2023-01-31T05:50:25;138479.69;;;0.67;100.00
788;BME280;16074;42.708;23.312;2023-01-31T05:52:55;138485.63;;;0.70;100.00
788;BME280;16074;42.708;23.312;2023-01-31T05:55:26;138488.00;;;0.71;100.00
788;BME280;16074;42.708;23.312;2023-01-31T05:57:55;138507.09;;;0.79;100.00
788;BME280;16074;42.708;23.312;2023-01-31T06:00:23;138499.94;;;0.76;100.00
788;BME280;16074;42.708;23.312;2023-01-31T06:02:56;138516.63;;;0.83;100.00
788;BME280;16074;42.708;23.312;2023-01-31T06:05:26;138521.41;;;0.85;100.00
788;BME280;16074;42.708;23.312;2023-01-31T06:07:54;138526.19;;;0.87;100.00
788;BME280;16074;42.708;23.312;2023-01-31T06:10:22;138527.34;;;0.87;100.00
788;BME280;16074;42.708;23.312;2023-01-31T06:12:52;138541.66;;;0.93;100.00
788;BME280;16074;42.708;23.312;2023-01-31T06:15:21;138533.34;;;0.90;100.00
788;BME280;16074;42.708;23.312;2023-01-31T06:17:49;138554.81;;;0.99;100.00
788;BME280;16074;42.708;23.312;2023-01-31T06:20:17;138541.66;;;0.93;100.00
788;BME280;16074;42.708;23.312;2023-01-31T06:22:45;138551.22;;;0.97;100.00
788;BME280;16074;42.708;23.312;2023-01-31T06:25:14;138575.06;;;1.07;100.00
788;BME280;16074;42.708;23.312;2023-01-31T06:27:42;138585.84;;;1.12;100.00
788;BME280;16074;42.708;23.312;2023-01-31T06:30:13;138578.69;;;1.09;100.00
788;BME280;16074;42.708;23.312;2023-01-31T06:32:41;138590.56;;;1.13;100.00
788;BME280;16074;42.708;23.312;2023-01-31T06:35:09;138589.41;;;1.13;100.00
788;BME280;16074;42.708;23.312;2023-01-31T06:37:37;138575.06;;;1.07;100.00
788;BME280;16074;42.708;23.312;2023-01-31T06:40:06;138591.78;;;1.14;100.00
788;BME280;16074;42.708;23.312;2023-01-31T06:42:35;138597.72;;;1.16;100.00
788;BME280;16074;42.708;23.312;2023-01-31T06:45:03;138595.34;;;1.15;100.00
788;BME280;16074;42.708;23.312;2023-01-31T06:47:33;138602.50;;;1.18;100.00
788;BME280;16074;42.708;23.312;2023-01-31T06:50:02;138607.28;;;1.20;100.00
788;BME280;16074;42.708;23.312;2023-01-31T06:52:30;138620.44;;;1.26;100.00
788;BME280;16074;42.708;23.312;2023-01-31T06:54:59;138613.25;;;1.23;100.00
788;BME280;16074;42.708;23.312;2023-01-31T06:57:27;138625.19;;;1.28;100.00
788;BME280;16074;42.708;23.312;2023-01-31T06:59:56;138628.75;;;1.29;100.00
788;BME280;16074;42.708;23.312;2023-01-31T07:02:24;138645.47;;;1.36;100.00
788;BME280;16074;42.708;23.312;2023-01-31T07:04:54;138640.69;;;1.34;100.00
788;BME280;16074;42.708;23.312;2023-01-31T07:07:22;138639.53;;;1.34;100.00
788;BME280;16074;42.708;23.312;2023-01-31T07:09:50;138649.06;;;1.38;100.00
788;BME280;16074;42.708;23.312;2023-01-31T07:12:19;138660.97;;;1.43;100.00
788;BME280;16074;42.708;23.312;2023-01-31T07:14:48;138660.97;;;1.43;100.00
788;BME280;16074;42.708;23.312;2023-01-31T07:17:16;138675.28;;;1.49;100.00
788;BME280;16074;42.708;23.312;2023-01-31T07:19:46;138690.81;;;1.55;100.00
788;BME280;16074;42.708;23.312;2023-01-31T07:22:16;138693.22;;;1.56;100.00
788;BME280;16074;42.708;23.312;2023-01-31T07:24:44;138692.00;;;1.56;100.00
788;BME280;16074;42.708;23.312;2023-01-31T07:27:14;138695.59;;;1.57;100.00
788;BME280;16074;42.708;23.312;2023-01-31T07:29:43;138711.09;;;1.64;100.00
788;BME280;16074;42.708;23.312;2023-01-31T07:32:11;138693.22;;;1.56;100.00
788;BME280;16074;42.708;23.312;2023-01-31T07:34:39;138729.00;;;1.71;100.00
788;BME280;16074;42.708;23.312;2023-01-31T07:37:08;138688.44;;;1.54;100.00
788;BME280;16074;42.708;23.312;2023-01-31T07:39:38;138713.50;;;1.65;100.00
788;BME280;16074;42.708;23.312;2023-01-31T07:42:06;138711.09;;;1.64;100.00
788;BME280;16074;42.708;23.312;2023-01-31T07:44:36;138703.94;;;1.61;100.00
788;BME280;16074;42.708;23.312;2023-01-31T07:47:04;138740.94;;;1.76;100.00
788;BME280;16074;42.708;23.312;2023-01-31T07:49:32;138743.31;;;1.77;100.00
788;BME280;16074;42.708;23.312;2023-01-31T07:52:00;138725.44;;;1.70;100.00
788;BME280;16074;42.708;23.312;2023-01-31T07:54:29;138736.16;;;1.74;100.00
788;BME280;16074;42.708;23.312;2023-01-31T07:56:59;138748.09;;;1.79;100.00
788;BME280;16074;42.708;23.312;2023-01-31T07:59:27;138770.81;;;1.89;100.00
788;BME280;16074;42.708;23.312;2023-01-31T08:01:55;138733.75;;;1.73;100.00
788;BME280;16074;42.708;23.312;2023-01-31T08:04:41;138740.94;;;1.76;100.00
788;BME280;16074;42.708;23.312;2023-01-31T08:07:09;138737.38;;;1.75;100.00
788;BME280;16074;42.708;23.312;2023-01-31T08:09:37;138760.03;;;1.84;100.00
788;BME280;16074;42.708;23.312;2023-01-31T08:12:07;138785.13;;;1.95;100.00
788;BME280;16074;42.708;23.312;2023-01-31T08:14:35;138807.81;;;2.04;100.00
788;BME280;16074;42.708;23.312;2023-01-31T08:17:03;138799.41;;;2.01;100.00
788;BME280;16074;42.708;23.312;2023-01-31T08:19:34;138831.69;;;2.14;100.00
788;BME280;16074;42.708;23.312;2023-01-31T08:22:03;138908.09;;;2.46;100.00
788;BME280;16074;42.708;23.312;2023-01-31T08:24:32;138953.53;;;2.65;100.00
788;BME280;16074;42.708;23.312;2023-01-31T08:27:00;139034.75;;;2.99;100.00
788;BME280;16074;42.708;23.312;2023-01-31T08:29:30;139125.66;;;3.37;97.19
788;BME280;16074;42.708;23.312;2023-01-31T08:31:58;139208.13;;;3.71;94.84
788;BME280;16074;42.708;23.312;2023-01-31T08:34:27;139236.84;;;3.83;91.69
788;BME280;16074;42.708;23.312;2023-01-31T08:36:56;139252.41;;;3.89;90.22
788;BME280;16074;42.708;23.312;2023-01-31T08:39:24;139255.97;;;3.91;89.36
788;BME280;16074;42.708;23.312;2023-01-31T08:41:52;139245.22;;;3.86;89.30
788;BME280;16074;42.708;23.312;2023-01-31T08:44:20;139260.75;;;3.93;89.92
788;BME280;16074;42.708;23.312;2023-01-31T08:46:50;139258.38;;;3.92;88.61
788;BME280;16074;42.708;23.312;2023-01-31T08:49:18;139212.91;;;3.73;88.86
788;BME280;16074;42.708;23.312;2023-01-31T08:51:47;139293.06;;;4.06;90.25
788;BME280;16074;42.708;23.312;2023-01-31T08:54:15;139307.41;;;4.12;87.87
788;BME280;16074;42.708;23.312;2023-01-31T08:56:43;139337.38;;;4.25;87.63
788;BME280;16074;42.708;23.312;2023-01-31T08:59:11;139355.31;;;4.32;86.86
788;BME280;16074;42.708;23.312;2023-01-31T09:01:40;139400.78;;;4.51;86.23
788;BME280;16074;42.708;23.312;2023-01-31T09:04:12;139421.13;;;4.60;85.09
788;BME280;16074;42.708;23.312;2023-01-31T09:06:41;139409.16;;;4.55;85.81
788;BME280;16074;42.708;23.312;2023-01-31T09:09:09;139461.84;;;4.76;84.41
788;BME280;16074;42.708;23.312;2023-01-31T09:11:37;139555.25;;;5.15;83.63
788;BME280;16074;42.708;23.312;2023-01-31T09:14:06;139549.22;;;5.13;81.84
788;BME280;16074;42.708;23.312;2023-01-31T09:16:34;139631.88;;;5.47;83.20
788;BME280;16074;42.708;23.312;2023-01-31T09:19:03;139731.41;;;5.88;80.69
788;BME280;16074;42.708;23.312;2023-01-31T09:21:32;139785.34;;;6.11;77.84
788;BME280;16074;42.708;23.312;2023-01-31T09:24:01;139840.53;;;6.34;77.49
788;BME280;16074;42.708;23.312;2023-01-31T09:26:30;139853.69;;;6.39;74.61
788;BME280;16074;42.708;23.312;2023-01-31T09:28:59;139844.09;;;6.35;74.16
788;BME280;16074;42.708;23.312;2023-01-31T09:31:28;139840.53;;;6.34;74.18
788;BME280;16074;42.708;23.312;2023-01-31T09:33:57;139886.06;;;6.53;72.93
788;BME280;16074;42.708;23.312;2023-01-31T09:36:25;139923.28;;;6.68;72.63
788;BME280;16074;42.708;23.312;2023-01-31T09:38:56;139834.50;;;6.31;70.21
788;BME280;16074;42.708;23.312;2023-01-31T09:41:28;139675.03;;;5.65;73.21
788;BME280;16074;42.708;23.312;2023-01-31T09:44:01;139706.25;;;5.78;74.98
788;BME280;16074;42.708;23.312;2023-01-31T09:46:34;139768.56;;;6.04;76.01
788;BME280;16074;42.708;23.312;2023-01-31T09:49:08;139844.09;;;6.35;75.22
788;BME280;16074;42.708;23.312;2023-01-31T09:51:38;139863.31;;;6.43;73.42
788;BME280;16074;42.708;23.312;2023-01-31T09:54:16;139900.47;;;6.59;74.21
788;BME280;16074;42.708;23.312;2023-01-31T09:56:53;139805.78;;;6.19;74.62
788;BME280;16074;42.708;23.312;2023-01-31T09:59:33;139880.09;;;6.50;73.81
788;BME280;16074;42.708;23.312;2023-01-31T10:02:15;139868.09;;;6.45;72.70
788;BME280;16074;42.708;23.312;2023-01-31T10:05:00;139882.50;;;6.51;74.72
788;BME280;16074;42.708;23.312;2023-01-31T10:07:33;139912.47;;;6.64;73.71
788;BME280;16074;42.708;23.312;2023-01-31T10:10:14;139953.28;;;6.81;72.62
788;BME280;16074;42.708;23.312;2023-01-31T10:12:46;139955.69;;;6.82;72.44
788;BME280;16074;42.708;23.312;2023-01-31T10:15:19;139943.66;;;6.77;72.69
788;BME280;16074;42.708;23.312;2023-01-31T10:17:53;139959.25;;;6.83;72.86
788;BME280;16074;42.708;23.312;2023-01-31T10:20:34;139907.66;;;6.62;74.64
788;BME280;16074;42.708;23.312;2023-01-31T10:23:07;139942.50;;;6.76;73.59
788;BME280;16074;42.708;23.312;2023-01-31T10:25:46;140000.06;;;7.00;71.93
788;BME280;16074;42.708;23.312;2023-01-31T10:28:19;139991.69;;;6.97;72.48
788;BME280;16074;42.708;23.312;2023-01-31T10:30:55;139908.91;;;6.62;73.91
788;BME280;16074;42.708;23.312;2023-01-31T10:33:34;139857.31;;;6.41;77.25
788;BME280;16074;42.708;23.312;2023-01-31T10:36:10;139702.59;;;5.77;78.91
788;BME280;16074;42.708;23.312;2023-01-31T10:38:45;139648.69;;;5.54;84.15
788;BME280;16074;42.708;23.312;2023-01-31T10:41:23;139643.88;;;5.52;86.79
788;BME280;16074;42.708;23.312;2023-01-31T10:43:58;139621.13;;;5.43;88.33
788;BME280;16074;42.708;23.312;2023-01-31T10:46:28;139667.84;;;5.62;89.91
788;BME280;16074;42.708;23.312;2023-01-31T10:48:57;139677.44;;;5.66;89.89
788;BME280;16074;42.708;23.312;2023-01-31T10:51:35;139657.09;;;5.58;89.63
788;BME280;16074;42.708;23.312;2023-01-31T10:54:16;139661.88;;;5.60;89.55
788;BME280;16074;42.708;23.312;2023-01-31T10:56:49;139600.78;;;5.34;86.48
788;BME280;16074;42.708;23.312;2023-01-31T10:59:21;139501.34;;;4.93;86.81
788;BME280;16074;42.708;23.312;2023-01-31T11:01:51;139504.94;;;4.94;89.14
788;BME280;16074;42.708;23.312;2023-01-31T11:04:23;139362.47;;;4.35;88.02
788;BME280;16074;42.708;23.312;2023-01-31T11:06:52;139328.97;;;4.21;91.52
788;BME280;16074;42.708;23.312;2023-01-31T11:09:22;139303.84;;;4.11;90.75
788;BME280;16074;42.708;23.312;2023-01-31T11:11:56;139266.78;;;3.95;89.82
788;BME280;16074;42.708;23.312;2023-01-31T11:14:25;139284.69;;;4.03;91.17
788;BME280;16074;42.708;23.312;2023-01-31T11:16:58;139283.47;;;4.02;89.51
788;BME280;16074;42.708;23.312;2023-01-31T11:19:32;139283.47;;;4.02;89.56
788;BME280;16074;42.708;23.312;2023-01-31T11:22:02;139258.38;;;3.92;90.68
788;BME280;16074;42.708;23.312;2023-01-31T11:24:32;139261.97;;;3.93;92.98
788;BME280;16074;42.708;23.312;2023-01-31T11:27:05;139278.69;;;4.00;92.31
788;BME280;16074;42.708;23.312;2023-01-31T11:29:36;139311.03;;;4.14;93.39
788;BME280;16074;42.708;23.312;2023-01-31T11:32:13;139326.56;;;4.20;92.84
788;BME280;16074;42.708;23.312;2023-01-31T11:34:54;139300.25;;;4.09;93.16
788;BME280;16074;42.708;23.312;2023-01-31T11:37:23;139281.09;;;4.01;93.92
788;BME280;16074;42.708;23.312;2023-01-31T11:39:56;139242.84;;;3.85;94.21
788;BME280;16074;42.708;23.312;2023-01-31T11:42:27;139222.47;;;3.77;95.04
788;BME280;16074;42.708;23.312;2023-01-31T11:44:59;139210.50;;;3.72;95.94
788;BME280;16074;42.708;23.312;2023-01-31T11:47:38;139171.06;;;3.55;96.18
788;BME280;16074;42.708;23.312;2023-01-31T11:50:18;139096.94;;;3.25;96.89
788;BME280;16074;42.708;23.312;2023-01-31T11:52:54;139081.38;;;3.18;97.78
788;BME280;16074;42.708;23.312;2023-01-31T11:55:23;139067.03;;;3.12;99.68
788;BME280;16074;42.708;23.312;2023-01-31T11:57:58;139078.97;;;3.17;100.00
788;BME280;16074;42.708;23.312;2023-01-31T12:00:30;139003.69;;;2.86;100.00
788;BME280;16074;42.708;23.312;2023-01-31T12:03:02;138984.59;;;2.78;100.00
788;BME280;16074;42.708;23.312;2023-01-31T12:05:37;139008.47;;;2.88;100.00
788;BME280;16074;42.708;23.312;2023-01-31T12:08:25;138981.00;;;2.76;100.00
788;BME280;16074;42.708;23.312;2023-01-31T12:10:56;138987.00;;;2.79;100.00
788;BME280;16074;42.708;23.312;2023-01-31T12:13:26;138958.31;;;2.67;100.00
788;BME280;16074;42.708;23.312;2023-01-31T12:15:57;138958.31;;;2.67;100.00
788;BME280;16074;42.708;23.312;2023-01-31T12:18:43;138967.88;;;2.71;100.00
788;BME280;16074;42.708;23.312;2023-01-31T12:21:30;138965.47;;;2.70;100.00
788;BME280;16074;42.708;23.312;2023-01-31T12:24:11;138963.09;;;2.69;100.00
788;BME280;16074;42.708;23.312;2023-01-31T12:26:47;138959.47;;;2.67;100.00
788;BME280;16074;42.708;23.312;2023-01-31T12:29:29;138963.09;;;2.69;100.00
788;BME280;16074;42.708;23.312;2023-01-31T12:32:11;138955.91;;;2.66;99.15
788;BME280;16074;42.708;23.312;2023-01-31T12:35:06;138951.13;;;2.64;99.12
788;BME280;16074;42.708;23.312;2023-01-31T12:37:44;138961.88;;;2.68;98.53
788;BME280;16074;42.708;23.312;2023-01-31T12:40:29;138967.88;;;2.71;98.89
788;BME280;16074;42.708;23.312;2023-01-31T12:43:02;138967.88;;;2.71;98.59
788;BME280;16074;42.708;23.312;2023-01-31T12:45:56;138987.00;;;2.79;99.22
788;BME280;16074;42.708;23.312;2023-01-31T12:48:57;138976.22;;;2.74;99.03
788;BME280;16074;42.708;23.312;2023-01-31T12:51:41;138983.38;;;2.77;99.62
788;BME280;16074;42.708;23.312;2023-01-31T12:54:33;138979.81;;;2.76;100.00
788;BME280;16074;42.708;23.312;2023-01-31T12:57:20;138945.13;;;2.61;100.00
788;BME280;16074;42.708;23.312;2023-01-31T12:59:55;138939.19;;;2.59;100.00
788;BME280;16074;42.708;23.312;2023-01-31T13:02:39;138943.97;;;2.61;100.00
788;BME280;16074;42.708;23.312;2023-01-31T13:05:23;138955.91;;;2.66;100.00
788;BME280;16074;42.708;23.312;2023-01-31T13:08:00;138966.66;;;2.70;100.00
788;BME280;16074;42.708;23.312;2023-01-31T13:10:35;138964.25;;;2.69;99.02
788;BME280;16074;42.708;23.312;2023-01-31T13:13:11;138975.03;;;2.74;98.56
788;BME280;16074;42.708;23.312;2023-01-31T13:15:46;139003.69;;;2.86;98.94
788;BME280;16074;42.708;23.312;2023-01-31T13:18:17;139004.91;;;2.86;98.02
788;BME280;16074;42.708;23.312;2023-01-31T13:20:50;138998.91;;;2.84;97.67
788;BME280;16074;42.708;23.312;2023-01-31T13:23:21;139014.47;;;2.90;98.21
788;BME280;16074;42.708;23.312;2023-01-31T13:25:58;139004.91;;;2.86;97.44
788;BME280;16074;42.708;23.312;2023-01-31T13:28:33;139021.63;;;2.93;98.08
788;BME280;16074;42.708;23.312;2023-01-31T13:31:07;139031.19;;;2.97;96.81
788;BME280;16074;42.708;23.312;2023-01-31T13:33:40;139056.28;;;3.08;97.25
788;BME280;16074;42.708;23.312;2023-01-31T13:36:20;139056.28;;;3.08;97.62
788;BME280;16074;42.708;23.312;2023-01-31T13:38:49;139075.41;;;3.16;97.71
788;BME280;16074;42.708;23.312;2023-01-31T13:41:23;139069.41;;;3.13;97.66
788;BME280;16074;42.708;23.312;2023-01-31T13:43:53;139070.63;;;3.14;97.88
788;BME280;16074;42.708;23.312;2023-01-31T13:46:27;139044.31;;;3.03;96.91
788;BME280;16074;42.708;23.312;2023-01-31T13:49:02;139044.31;;;3.03;96.14
788;BME280;16074;42.708;23.312;2023-01-31T13:51:36;139037.16;;;3.00;95.86
788;BME280;16074;42.708;23.312;2023-01-31T13:54:12;139052.72;;;3.06;94.72
788;BME280;16074;42.708;23.312;2023-01-31T13:56:47;139095.72;;;3.24;95.08
788;BME280;16074;42.708;23.312;2023-01-31T13:59:20;139119.63;;;3.34;93.53
788;BME280;16074;42.708;23.312;2023-01-31T14:01:50;139137.56;;;3.42;92.85
788;BME280;16074;42.708;23.312;2023-01-31T14:04:33;139144.72;;;3.45;91.10
788;BME280;16074;42.708;23.312;2023-01-31T14:07:19;139130.44;;;3.39;90.31
788;BME280;16074;42.708;23.312;2023-01-31T14:10:24;139095.72;;;3.24;90.53
788;BME280;16074;42.708;23.312;2023-01-31T14:15:58;139068.25;;;3.13;90.79